Heflin, Alabama
Current Conditions -  °F | °C
As of 2:53 AM on Wednesday 22 Oct 2014 (Local Time) from KANB Reporting Station
Clear Clear  
Wind Chill: 50°   Ceiling: Unl
Heat Index: 50°   Visibility: 10mi
Dew Point: 47°   Wind: 5mph
Humidity: 89%   Direction: 60°ENE
Pressure: 30.07"   Gusts: NA
Location:  33.65°N, 85.59°W
Report Text: KANB 220753Z AUTO 06004KT 10SM CLR 10/08 A3007 RMK AO2 SLP180 T01000083
Loading
Personal Weather Stations






























Interactive Weather Map
Tropical Storm Tracking
New forecast layout! Learn more

10-Day Weather Forecast

Advertisements
Track Severe Weather on mobile